sensor_id;sensor_type;location;lat;lon;timestamp;temperature;humidity
7378;DHT22;3730;50.856;12.776;2022-07-21T00:00:46;26.90;1.00
7378;DHT22;3730;50.856;12.776;2022-07-21T00:03:12;26.90;1.00
7378;DHT22;3730;50.856;12.776;2022-07-21T00:05:38;26.90;1.00
7378;DHT22;3730;50.856;12.776;2022-07-21T00:08:04;26.90;1.00
7378;DHT22;3730;50.856;12.776;2022-07-21T00:10:30;26.90;1.00
7378;DHT22;3730;50.856;12.776;2022-07-21T00:12:56;26.90;1.00
7378;DHT22;3730;50.856;12.776;2022-07-21T00:15:24;26.90;1.00
7378;DHT22;3730;50.856;12.776;2022-07-21T00:17:50;26.90;1.00
7378;DHT22;3730;50.856;12.776;2022-07-21T00:20:16;26.80;1.00
7378;DHT22;3730;50.856;12.776;2022-07-21T00:22:43;26.80;1.00
7378;DHT22;3730;50.856;12.776;2022-07-21T00:25:11;26.80;1.00
7378;DHT22;3730;50.856;12.776;2022-07-21T00:27:36;26.70;1.00
7378;DHT22;3730;50.856;12.776;2022-07-21T00:30:04;26.70;1.00
7378;DHT22;3730;50.856;12.776;2022-07-21T00:32:30;26.60;1.00
7378;DHT22;3730;50.856;12.776;2022-07-21T00:34:56;26.60;1.00
7378;DHT22;3730;50.856;12.776;2022-07-21T00:37:22;26.50;1.00
7378;DHT22;3730;50.856;12.776;2022-07-21T00:39:50;26.50;1.00
7378;DHT22;3730;50.856;12.776;2022-07-21T00:42:28;26.40;1.00
7378;DHT22;3730;50.856;12.776;2022-07-21T00:44:55;26.40;1.00
7378;DHT22;3730;50.856;12.776;2022-07-21T00:47:26;26.30;1.00
7378;DHT22;3730;50.856;12.776;2022-07-21T00:49:53;26.30;1.00
7378;DHT22;3730;50.856;12.776;2022-07-21T00:52:19;26.20;1.00
7378;DHT22;3730;50.856;12.776;2022-07-21T00:54:45;26.10;1.00
7378;DHT22;3730;50.856;12.776;2022-07-21T00:57:12;26.10;1.00
7378;DHT22;3730;50.856;12.776;2022-07-21T00:59:38;26.10;1.00
7378;DHT22;3730;50.856;12.776;2022-07-21T01:02:04;26.00;1.00
7378;DHT22;3730;50.856;12.776;2022-07-21T01:04:30;25.90;1.00
7378;DHT22;3730;50.856;12.776;2022-07-21T01:06:57;25.90;1.00
7378;DHT22;3730;50.856;12.776;2022-07-21T01:09:25;25.80;1.00
7378;DHT22;3730;50.856;12.776;2022-07-21T01:11:51;25.80;1.00
7378;DHT22;3730;50.856;12.776;2022-07-21T01:14:17;25.70;1.00
7378;DHT22;3730;50.856;12.776;2022-07-21T01:16:43;25.70;1.00
7378;DHT22;3730;50.856;12.776;2022-07-21T01:19:09;25.60;1.00
7378;DHT22;3730;50.856;12.776;2022-07-21T01:21:41;25.60;1.00
7378;DHT22;3730;50.856;12.776;2022-07-21T01:24:07;25.50;1.00
7378;DHT22;3730;50.856;12.776;2022-07-21T01:26:45;25.50;1.00
7378;DHT22;3730;50.856;12.776;2022-07-21T01:29:11;25.40;1.00
7378;DHT22;3730;50.856;12.776;2022-07-21T01:31:39;25.40;1.00
7378;DHT22;3730;50.856;12.776;2022-07-21T01:34:06;25.30;1.00
7378;DHT22;3730;50.856;12.776;2022-07-21T01:36:32;25.30;1.00
7378;DHT22;3730;50.856;12.776;2022-07-21T01:38:58;25.20;1.00
7378;DHT22;3730;50.856;12.776;2022-07-21T01:41:42;25.20;1.00
7378;DHT22;3730;50.856;12.776;2022-07-21T01:44:09;25.20;1.00
7378;DHT22;3730;50.856;12.776;2022-07-21T01:46:40;25.20;1.00
7378;DHT22;3730;50.856;12.776;2022-07-21T01:49:06;25.10;1.00
7378;DHT22;3730;50.856;12.776;2022-07-21T01:51:33;25.10;1.00
7378;DHT22;3730;50.856;12.776;2022-07-21T01:53:59;25.10;1.00
7378;DHT22;3730;50.856;12.776;2022-07-21T01:56:26;25.00;1.00
7378;DHT22;3730;50.856;12.776;2022-07-21T01:58:53;24.90;1.00
7378;DHT22;3730;50.856;12.776;2022-07-21T02:01:20;24.90;1.00
7378;DHT22;3730;50.856;12.776;2022-07-21T02:03:47;24.90;1.00
7378;DHT22;3730;50.856;12.776;2022-07-21T02:06:13;24.90;1.00
7378;DHT22;3730;50.856;12.776;2022-07-21T02:08:40;24.80;1.00
7378;DHT22;3730;50.856;12.776;2022-07-21T02:11:08;24.80;1.00
7378;DHT22;3730;50.856;12.776;2022-07-21T02:13:34;24.80;1.00
7378;DHT22;3730;50.856;12.776;2022-07-21T02:16:00;24.80;1.00
7378;DHT22;3730;50.856;12.776;2022-07-21T02:18:26;24.70;1.00
7378;DHT22;3730;50.856;12.776;2022-07-21T02:20:52;24.80;1.00
7378;DHT22;3730;50.856;12.776;2022-07-21T02:23:19;24.70;1.00
7378;DHT22;3730;50.856;12.776;2022-07-21T02:25:45;24.70;1.00
7378;DHT22;3730;50.856;12.776;2022-07-21T02:28:11;24.70;1.00
7378;DHT22;3730;50.856;12.776;2022-07-21T02:30:37;24.70;1.00
7378;DHT22;3730;50.856;12.776;2022-07-21T02:33:03;24.70;1.00
7378;DHT22;3730;50.856;12.776;2022-07-21T02:35:29;24.60;1.00
7378;DHT22;3730;50.856;12.776;2022-07-21T02:37:55;24.70;1.00
7378;DHT22;3730;50.856;12.776;2022-07-21T02:40:21;24.60;1.00
7378;DHT22;3730;50.856;12.776;2022-07-21T02:42:47;24.60;1.00
7378;DHT22;3730;50.856;12.776;2022-07-21T02:45:12;24.50;1.00
7378;DHT22;3730;50.856;12.776;2022-07-21T02:47:58;24.50;1.00
7378;DHT22;3730;50.856;12.776;2022-07-21T02:50:29;24.50;1.00
7378;DHT22;3730;50.856;12.776;2022-07-21T02:52:57;24.50;1.00
7378;DHT22;3730;50.856;12.776;2022-07-21T02:55:24;24.50;1.00
7378;DHT22;3730;50.856;12.776;2022-07-21T03:14:52;24.40;1.00
7378;DHT22;3730;50.856;12.776;2022-07-21T03:17:18;24.10;1.00
7378;DHT22;3730;50.856;12.776;2022-07-21T03:19:44;24.10;1.00
7378;DHT22;3730;50.856;12.776;2022-07-21T03:22:09;24.00;1.00
7378;DHT22;3730;50.856;12.776;2022-07-21T03:24:35;24.00;1.00
7378;DHT22;3730;50.856;12.776;2022-07-21T03:27:00;24.00;1.00
7378;DHT22;3730;50.856;12.776;2022-07-21T03:29:26;23.90;1.00
7378;DHT22;3730;50.856;12.776;2022-07-21T03:31:52;23.80;1.00
7378;DHT22;3730;50.856;12.776;2022-07-21T03:34:17;23.70;1.00
7378;DHT22;3730;50.856;12.776;2022-07-21T03:36:43;23.70;1.00
7378;DHT22;3730;50.856;12.776;2022-07-21T03:39:08;23.70;1.00
7378;DHT22;3730;50.856;12.776;2022-07-21T03:41:34;23.70;1.00
7378;DHT22;3730;50.856;12.776;2022-07-21T03:44:00;23.60;1.00
7378;DHT22;3730;50.856;12.776;2022-07-21T03:46:25;23.70;1.00
7378;DHT22;3730;50.856;12.776;2022-07-21T03:48:51;23.60;1.00
7378;DHT22;3730;50.856;12.776;2022-07-21T03:51:17;23.60;1.00
7378;DHT22;3730;50.856;12.776;2022-07-21T03:53:42;23.60;1.90
7378;DHT22;3730;50.856;12.776;2022-07-21T03:56:08;23.40;3.50
7378;DHT22;3730;50.856;12.776;2022-07-21T06:44:31;24.00;35.80
7378;DHT22;3730;50.856;12.776;2022-07-21T06:46:56;24.20;34.30
7378;DHT22;3730;50.856;12.776;2022-07-21T06:49:23;24.30;35.00
7378;DHT22;3730;50.856;12.776;2022-07-21T06:51:48;24.30;34.70
7378;DHT22;3730;50.856;12.776;2022-07-21T06:54:14;24.40;34.30
7378;DHT22;3730;50.856;12.776;2022-07-21T06:56:40;24.50;33.90
7378;DHT22;3730;50.856;12.776;2022-07-21T06:59:06;24.50;33.00
7378;DHT22;3730;50.856;12.776;2022-07-21T07:01:32;24.50;32.10
7378;DHT22;3730;50.856;12.776;2022-07-21T07:03:59;24.50;31.60
7378;DHT22;3730;50.856;12.776;2022-07-21T07:06:25;24.50;31.10
7378;DHT22;3730;50.856;12.776;2022-07-21T07:08:50;24.50;30.20
7378;DHT22;3730;50.856;12.776;2022-07-21T07:11:16;24.40;30.40
7378;DHT22;3730;50.856;12.776;2022-07-21T07:13:42;24.40;30.40
7378;DHT22;3730;50.856;12.776;2022-07-21T07:16:08;24.50;30.70
7378;DHT22;3730;50.856;12.776;2022-07-21T07:18:33;24.50;30.30
7378;DHT22;3730;50.856;12.776;2022-07-21T07:20:59;24.50;30.80
7378;DHT22;3730;50.856;12.776;2022-07-21T07:23:25;24.50;31.10
7378;DHT22;3730;50.856;12.776;2022-07-21T07:25:50;24.50;31.70
7378;DHT22;3730;50.856;12.776;2022-07-21T07:28:16;24.50;31.90
7378;DHT22;3730;50.856;12.776;2022-07-21T07:30:42;24.50;32.50
7378;DHT22;3730;50.856;12.776;2022-07-21T07:33:07;24.50;32.50
7378;DHT22;3730;50.856;12.776;2022-07-21T07:35:33;24.50;33.00
7378;DHT22;3730;50.856;12.776;2022-07-21T07:38:00;24.50;33.40
7378;DHT22;3730;50.856;12.776;2022-07-21T07:40:28;24.50;33.30
7378;DHT22;3730;50.856;12.776;2022-07-21T07:42:54;24.60;32.90
7378;DHT22;3730;50.856;12.776;2022-07-21T07:45:19;24.60;33.20
7378;DHT22;3730;50.856;12.776;2022-07-21T07:47:45;24.70;32.60
7378;DHT22;3730;50.856;12.776;2022-07-21T07:50:12;24.70;30.90
7378;DHT22;3730;50.856;12.776;2022-07-21T07:52:40;24.80;30.20
7378;DHT22;3730;50.856;12.776;2022-07-21T07:55:07;24.80;29.20
7378;DHT22;3730;50.856;12.776;2022-07-21T07:57:37;24.90;27.30
7378;DHT22;3730;50.856;12.776;2022-07-21T08:56:13;24.90;26.60
7378;DHT22;3730;50.856;12.776;2022-07-21T09:03:32;24.40;41.10
7378;DHT22;3730;50.856;12.776;2022-07-21T09:08:41;24.00;55.90
7378;DHT22;3730;50.856;12.776;2022-07-21T09:11:43;24.00;56.60
7378;DHT22;3730;50.856;12.776;2022-07-21T09:14:06;23.80;58.60
7378;DHT22;3730;50.856;12.776;2022-07-21T09:16:40;23.60;65.50
7378;DHT22;3730;50.856;12.776;2022-07-21T09:19:07;23.40;75.90
7378;DHT22;3730;50.856;12.776;2022-07-21T09:21:36;23.30;80.30
7378;DHT22;3730;50.856;12.776;2022-07-21T13:10:16;23.90;99.90
7378;DHT22;3730;50.856;12.776;2022-07-21T13:12:42;24.20;99.90
7378;DHT22;3730;50.856;12.776;2022-07-21T13:17:34;24.30;99.90
7378;DHT22;3730;50.856;12.776;2022-07-21T13:37:04;25.20;99.90
7378;DHT22;3730;50.856;12.776;2022-07-21T13:39:30;25.70;99.90
7378;DHT22;3730;50.856;12.776;2022-07-21T13:41:57;25.70;99.90
7378;DHT22;3730;50.856;12.776;2022-07-21T13:56:33;25.90;99.90
7378;DHT22;3730;50.856;12.776;2022-07-21T13:58:59;26.20;99.30
7378;DHT22;3730;50.856;12.776;2022-07-21T14:03:51;26.50;98.30
7378;DHT22;3730;50.856;12.776;2022-07-21T14:08:43;26.90;96.50
7378;DHT22;3730;50.856;12.776;2022-07-21T14:18:31;27.20;94.00
7378;DHT22;3730;50.856;12.776;2022-07-21T14:20:57;27.90;87.10
7378;DHT22;3730;50.856;12.776;2022-07-21T14:23:23;27.90;84.80
7378;DHT22;3730;50.856;12.776;2022-07-21T14:25:50;28.10;84.90
7378;DHT22;3730;50.856;12.776;2022-07-21T14:28:16;28.30;81.80
7378;DHT22;3730;50.856;12.776;2022-07-21T14:30:42;28.50;79.70
7378;DHT22;3730;50.856;12.776;2022-07-21T14:33:08;28.60;75.40
7378;DHT22;3730;50.856;12.776;2022-07-21T14:35:34;28.80;71.70
7378;DHT22;3730;50.856;12.776;2022-07-21T14:38:00;29.00;67.40
7378;DHT22;3730;50.856;12.776;2022-07-21T14:40:26;29.00;62.80
7378;DHT22;3730;50.856;12.776;2022-07-21T14:42:52;29.20;60.40
7378;DHT22;3730;50.856;12.776;2022-07-21T14:45:18;29.40;59.50
7378;DHT22;3730;50.856;12.776;2022-07-21T15:14:37;29.50;57.50
7378;DHT22;3730;50.856;12.776;2022-07-21T15:17:03;29.90;31.80
7378;DHT22;3730;50.856;12.776;2022-07-21T15:19:30;29.80;29.10
7378;DHT22;3730;50.856;12.776;2022-07-21T15:21:55;29.70;29.90
7378;DHT22;3730;50.856;12.776;2022-07-21T15:24:22;29.80;28.60
7378;DHT22;3730;50.856;12.776;2022-07-21T15:26:47;29.70;28.60
7378;DHT22;3730;50.856;12.776;2022-07-21T15:29:13;29.70;28.60
7378;DHT22;3730;50.856;12.776;2022-07-21T15:31:39;29.70;28.20
7378;DHT22;3730;50.856;12.776;2022-07-21T15:34:05;29.80;27.10
7378;DHT22;3730;50.856;12.776;2022-07-21T15:36:31;29.70;25.70
7378;DHT22;3730;50.856;12.776;2022-07-21T15:38:57;29.50;26.40
7378;DHT22;3730;50.856;12.776;2022-07-21T15:41:24;29.30;26.60
7378;DHT22;3730;50.856;12.776;2022-07-21T15:43:49;29.20;26.80
7378;DHT22;3730;50.856;12.776;2022-07-21T15:46:15;29.20;26.50
7378;DHT22;3730;50.856;12.776;2022-07-21T15:48:41;29.30;27.40
7378;DHT22;3730;50.856;12.776;2022-07-21T15:51:07;29.40;27.20
7378;DHT22;3730;50.856;12.776;2022-07-21T15:53:34;29.50;26.00
7378;DHT22;3730;50.856;12.776;2022-07-21T15:56:04;29.50;24.60
7378;DHT22;3730;50.856;12.776;2022-07-21T15:58:30;29.40;23.80
7378;DHT22;3730;50.856;12.776;2022-07-21T16:00:57;29.30;23.30
7378;DHT22;3730;50.856;12.776;2022-07-21T16:03:23;29.30;23.30
7378;DHT22;3730;50.856;12.776;2022-07-21T16:05:49;29.30;23.20
7378;DHT22;3730;50.856;12.776;2022-07-21T16:08:15;29.20;22.80
7378;DHT22;3730;50.856;12.776;2022-07-21T16:10:41;29.20;22.10
7378;DHT22;3730;50.856;12.776;2022-07-21T16:13:08;29.10;21.80
7378;DHT22;3730;50.856;12.776;2022-07-21T16:15:33;29.00;18.50
7378;DHT22;3730;50.856;12.776;2022-07-21T16:17:59;28.90;16.90
7378;DHT22;3730;50.856;12.776;2022-07-21T16:20:25;28.70;13.80
7378;DHT22;3730;50.856;12.776;2022-07-21T16:22:55;28.70;14.30
7378;DHT22;3730;50.856;12.776;2022-07-21T16:25:22;28.70;15.20
7378;DHT22;3730;50.856;12.776;2022-07-21T16:27:49;28.70;15.20
7378;DHT22;3730;50.856;12.776;2022-07-21T16:30:16;28.60;12.00
7378;DHT22;3730;50.856;12.776;2022-07-21T16:32:44;28.50;10.80
7378;DHT22;3730;50.856;12.776;2022-07-21T16:35:11;28.50;10.50
7378;DHT22;3730;50.856;12.776;2022-07-21T16:37:47;28.30;5.00
7378;DHT22;3730;50.856;12.776;2022-07-21T16:40:14;28.20;2.00
7378;DHT22;3730;50.856;12.776;2022-07-21T16:42:43;28.00;1.30
7378;DHT22;3730;50.856;12.776;2022-07-21T16:45:09;27.90;1.70
7378;DHT22;3730;50.856;12.776;2022-07-21T16:47:35;27.90;1.50
7378;DHT22;3730;50.856;12.776;2022-07-21T16:50:01;27.90;1.30
7378;DHT22;3730;50.856;12.776;2022-07-21T16:52:26;27.90;1.10
7378;DHT22;3730;50.856;12.776;2022-07-21T16:54:52;27.90;1.00
7378;DHT22;3730;50.856;12.776;2022-07-21T16:57:18;27.80;1.10
7378;DHT22;3730;50.856;12.776;2022-07-21T16:59:43;27.80;1.00
7378;DHT22;3730;50.856;12.776;2022-07-21T17:02:09;27.80;1.00
7378;DHT22;3730;50.856;12.776;2022-07-21T17:04:35;27.80;1.00
7378;DHT22;3730;50.856;12.776;2022-07-21T17:07:00;27.80;1.20
7378;DHT22;3730;50.856;12.776;2022-07-21T17:09:26;27.80;1.00
7378;DHT22;3730;50.856;12.776;2022-07-21T17:11:52;27.80;1.00
7378;DHT22;3730;50.856;12.776;2022-07-21T17:14:17;27.70;1.00
7378;DHT22;3730;50.856;12.776;2022-07-21T17:16:43;27.60;1.00
7378;DHT22;3730;50.856;12.776;2022-07-21T17:19:08;27.60;1.00
7378;DHT22;3730;50.856;12.776;2022-07-21T17:21:34;27.50;1.00
7378;DHT22;3730;50.856;12.776;2022-07-21T17:24:00;27.50;1.00
7378;DHT22;3730;50.856;12.776;2022-07-21T17:26:26;27.50;1.00
7378;DHT22;3730;50.856;12.776;2022-07-21T17:28:51;27.40;1.00
7378;DHT22;3730;50.856;12.776;2022-07-21T17:31:17;27.30;1.00
7378;DHT22;3730;50.856;12.776;2022-07-21T17:33:43;27.30;1.00
7378;DHT22;3730;50.856;12.776;2022-07-21T17:36:08;27.20;1.00
7378;DHT22;3730;50.856;12.776;2022-07-21T17:38:34;27.20;1.00
7378;DHT22;3730;50.856;12.776;2022-07-21T17:41:00;27.20;1.00
7378;DHT22;3730;50.856;12.776;2022-07-21T17:43:26;27.10;1.00
7378;DHT22;3730;50.856;12.776;2022-07-21T17:45:53;27.10;1.00
7378;DHT22;3730;50.856;12.776;2022-07-21T17:48:19;27.20;1.00
7378;DHT22;3730;50.856;12.776;2022-07-21T18:00:47;27.10;1.00
7378;DHT22;3730;50.856;12.776;2022-07-21T18:03:13;27.00;1.00
7378;DHT22;3730;50.856;12.776;2022-07-21T18:05:39;27.00;1.00
7378;DHT22;3730;50.856;12.776;2022-07-21T18:08:10;27.00;1.00
7378;DHT22;3730;50.856;12.776;2022-07-21T18:10:36;27.00;1.00
7378;DHT22;3730;50.856;12.776;2022-07-21T18:13:01;27.00;1.00
7378;DHT22;3730;50.856;12.776;2022-07-21T18:15:27;26.90;1.00
7378;DHT22;3730;50.856;12.776;2022-07-21T18:17:54;26.90;1.00
7378;DHT22;3730;50.856;12.776;2022-07-21T18:20:19;26.90;1.00
7378;DHT22;3730;50.856;12.776;2022-07-21T18:22:45;26.90;1.00
7378;DHT22;3730;50.856;12.776;2022-07-21T18:25:11;26.90;1.00
7378;DHT22;3730;50.856;12.776;2022-07-21T18:27:37;26.80;1.00
7378;DHT22;3730;50.856;12.776;2022-07-21T18:30:04;26.80;1.00
7378;DHT22;3730;50.856;12.776;2022-07-21T18:32:30;26.70;1.00
7378;DHT22;3730;50.856;12.776;2022-07-21T18:34:56;26.70;1.00
7378;DHT22;3730;50.856;12.776;2022-07-21T18:37:21;26.70;1.00
7378;DHT22;3730;50.856;12.776;2022-07-21T18:39:47;26.60;1.00
7378;DHT22;3730;50.856;12.776;2022-07-21T18:42:13;26.60;1.00
7378;DHT22;3730;50.856;12.776;2022-07-21T18:44:39;26.50;1.00
7378;DHT22;3730;50.856;12.776;2022-07-21T18:47:05;26.50;1.00
7378;DHT22;3730;50.856;12.776;2022-07-21T18:49:30;26.50;1.00
7378;DHT22;3730;50.856;12.776;2022-07-21T18:51:56;26.50;1.10
7378;DHT22;3730;50.856;12.776;2022-07-21T18:54:22;26.40;1.10
7378;DHT22;3730;50.856;12.776;2022-07-21T18:59:14;26.40;1.40
7378;DHT22;3730;50.856;12.776;2022-07-21T19:01:40;26.20;1.80
7378;DHT22;3730;50.856;12.776;2022-07-21T19:04:05;26.20;1.50
7378;DHT22;3730;50.856;12.776;2022-07-21T19:06:31;26.20;1.90
7378;DHT22;3730;50.856;12.776;2022-07-21T19:08:57;26.10;1.90
7378;DHT22;3730;50.856;12.776;2022-07-21T19:11:23;26.10;2.30
7378;DHT22;3730;50.856;12.776;2022-07-21T19:13:49;26.00;2.70
7378;DHT22;3730;50.856;12.776;2022-07-21T19:16:17;26.00;3.10
7378;DHT22;3730;50.856;12.776;2022-07-21T19:18:43;26.00;3.60
7378;DHT22;3730;50.856;12.776;2022-07-21T19:21:09;25.90;3.90
7378;DHT22;3730;50.856;12.776;2022-07-21T19:23:34;25.90;3.70
7378;DHT22;3730;50.856;12.776;2022-07-21T19:26:00;25.80;4.00
7378;DHT22;3730;50.856;12.776;2022-07-21T19:28:26;25.80;4.50
7378;DHT22;3730;50.856;12.776;2022-07-21T19:30:51;25.70;4.60
7378;DHT22;3730;50.856;12.776;2022-07-21T19:33:17;25.70;5.10
7378;DHT22;3730;50.856;12.776;2022-07-21T19:50:22;25.60;4.80
7378;DHT22;3730;50.856;12.776;2022-07-21T19:52:48;25.40;5.70
7378;DHT22;3730;50.856;12.776;2022-07-21T19:55:14;25.30;6.10
7378;DHT22;3730;50.856;12.776;2022-07-21T20:02:34;25.30;6.40
7378;DHT22;3730;50.856;12.776;2022-07-21T20:07:25;25.10;5.40
7378;DHT22;3730;50.856;12.776;2022-07-21T20:09:51;25.00;6.20
7378;DHT22;3730;50.856;12.776;2022-07-21T20:12:17;24.90;6.40
7378;DHT22;3730;50.856;12.776;2022-07-21T20:14:42;24.90;6.50
7378;DHT22;3730;50.856;12.776;2022-07-21T20:17:08;24.90;6.60
7378;DHT22;3730;50.856;12.776;2022-07-21T20:22:00;24.90;6.70
7378;DHT22;3730;50.856;12.776;2022-07-21T20:24:26;24.80;7.40
7378;DHT22;3730;50.856;12.776;2022-07-21T20:26:51;24.70;7.50
7378;DHT22;3730;50.856;12.776;2022-07-21T20:29:17;24.80;8.00
7378;DHT22;3730;50.856;12.776;2022-07-21T20:31:43;27.30;9.80
7378;DHT22;3730;50.856;12.776;2022-07-21T20:34:08;24.70;9.40
7378;DHT22;3730;50.856;12.776;2022-07-21T20:36:35;24.70;9.30
7378;DHT22;3730;50.856;12.776;2022-07-21T20:39:03;24.60;9.60
7378;DHT22;3730;50.856;12.776;2022-07-21T20:41:29;24.60;10.20
7378;DHT22;3730;50.856;12.776;2022-07-21T20:58:32;24.50;11.00
7378;DHT22;3730;50.856;12.776;2022-07-21T21:15:36;24.20;14.80
7378;DHT22;3730;50.856;12.776;2022-07-21T21:18:03;23.80;18.20
7378;DHT22;3730;50.856;12.776;2022-07-21T21:20:29;23.70;18.90
7378;DHT22;3730;50.856;12.776;2022-07-21T21:22:55;23.70;18.40
7378;DHT22;3730;50.856;12.776;2022-07-21T21:25:22;23.60;18.40
7378;DHT22;3730;50.856;12.776;2022-07-21T21:27:47;23.60;18.50
7378;DHT22;3730;50.856;12.776;2022-07-21T21:30:13;23.50;18.80
7378;DHT22;3730;50.856;12.776;2022-07-21T21:32:39;23.40;19.30
7378;DHT22;3730;50.856;12.776;2022-07-21T21:35:08;23.40;19.60
7378;DHT22;3730;50.856;12.776;2022-07-21T21:37:35;23.40;19.80
